createdAt,value
2019-02-09T00:01:10.562Z,14.43
2019-02-09T00:03:38.693Z,13.45
2019-02-09T00:06:06.985Z,15.03
2019-02-09T00:08:35.150Z,11.73
2019-02-09T00:11:03.577Z,10.93
2019-02-09T00:13:32.627Z,9.08
2019-02-09T00:16:00.799Z,11.80
2019-02-09T00:18:28.964Z,10.95
2019-02-09T00:20:57.247Z,9.33
2019-02-09T00:23:25.421Z,12.23
2019-02-09T00:25:53.633Z,12.20
2019-02-09T00:28:21.829Z,12.50
2019-02-09T00:30:50.739Z,11.20
2019-02-09T00:33:18.929Z,9.65
2019-02-09T00:35:47.412Z,7.92
2019-02-09T00:38:16.705Z,7.83
2019-02-09T00:40:44.894Z,8.05
2019-02-09T00:43:13.051Z,8.48
2019-02-09T00:45:41.532Z,9.58
2019-02-09T00:48:10.080Z,8.93
2019-02-09T00:50:39.744Z,10.10
2019-02-09T00:53:08.169Z,10.32
2019-02-09T00:55:36.756Z,9.98
2019-02-09T00:58:04.984Z,10.32
2019-02-09T01:00:34.474Z,13.25
2019-02-09T01:03:02.663Z,15.78
2019-02-09T01:05:32.953Z,9.10
2019-02-09T01:08:02.623Z,13.30
2019-02-09T01:10:30.990Z,13.48
2019-02-09T01:12:59.217Z,8.60
2019-02-09T01:15:27.402Z,11.00
2019-02-09T01:17:55.980Z,7.87
2019-02-09T01:20:24.262Z,10.53
2019-02-09T01:22:52.838Z,8.68
2019-02-09T01:25:21.018Z,10.72
2019-02-09T01:27:50.273Z,9.70
2019-02-09T01:30:22.499Z,13.33
2019-02-09T01:32:50.692Z,7.67
2019-02-09T01:35:18.838Z,9.10
2019-02-09T01:37:47.004Z,6.70
2019-02-09T01:40:20.197Z,7.03
2019-02-09T01:42:48.378Z,10.60
2019-02-09T01:45:24.225Z,10.10
2019-02-09T01:47:52.826Z,11.28
2019-02-09T01:50:21.343Z,11.65
2019-02-09T01:52:50.056Z,11.80
2019-02-09T01:55:18.263Z,12.98
2019-02-09T01:57:46.437Z,9.80
2019-02-09T02:00:33.302Z,10.70
2019-02-09T02:03:01.790Z,7.28
2019-02-09T02:05:29.996Z,10.72
2019-02-09T02:07:58.169Z,9.20
2019-02-09T02:10:28.373Z,9.03
2019-02-09T02:12:56.845Z,5.30
2019-02-09T02:15:25.541Z,8.05
2019-02-09T02:17:53.714Z,4.97
2019-02-09T02:20:23.114Z,5.83
2019-02-09T02:23:01.595Z,5.62
2019-02-09T02:25:29.815Z,9.03
2019-02-09T02:27:58.002Z,9.83
2019-02-09T02:30:31.076Z,6.67
2019-02-09T02:32:59.257Z,6.22
2019-02-09T02:35:27.420Z,10.13
2019-02-09T02:37:55.590Z,8.08
2019-02-09T02:40:23.815Z,7.55
2019-02-09T02:42:52.070Z,7.37
2019-02-09T02:45:20.256Z,7.58
2019-02-09T02:47:48.389Z,6.03
2019-02-09T02:50:17.787Z,6.87
2019-02-09T02:52:46.354Z,7.37
2019-02-09T02:55:16.601Z,5.70
2019-02-09T02:57:44.781Z,6.50
2019-02-09T03:00:16.546Z,10.45
2019-02-09T03:02:44.698Z,6.50
2019-02-09T03:05:15.624Z,6.72
2019-02-09T03:07:44.280Z,9.33
2019-02-09T03:10:12.512Z,9.00
2019-02-09T03:12:40.660Z,8.15
2019-02-09T03:15:17.106Z,6.00
2019-02-09T03:17:45.317Z,6.97
2019-02-09T03:20:15.422Z,8.65
2019-02-09T03:22:44.121Z,8.73
2019-02-09T03:25:14.805Z,7.25
2019-02-09T03:27:43.291Z,6.93
2019-02-09T03:30:12.839Z,12.78
2019-02-09T03:32:40.989Z,6.25
2019-02-09T03:35:10.250Z,5.47
2019-02-09T03:37:38.958Z,5.97
2019-02-09T03:40:09.497Z,6.83
2019-02-09T03:42:37.714Z,6.67
2019-02-09T03:45:08.088Z,10.80
2019-02-09T03:47:36.344Z,6.75
2019-02-09T03:50:06.002Z,7.17
2019-02-09T03:52:34.858Z,6.22
2019-02-09T03:55:03.470Z,8.58
2019-02-09T03:57:32.056Z,6.60
2019-02-09T04:00:00.485Z,9.33
2019-02-09T04:02:28.721Z,9.28
2019-02-09T04:04:56.887Z,8.50
2019-02-09T04:07:25.055Z,8.85
2019-02-09T04:09:53.233Z,6.35
2019-02-09T04:12:21.710Z,9.18
2019-02-09T04:14:49.887Z,10.58
2019-02-09T04:17:18.056Z,6.47
2019-02-09T04:19:46.246Z,5.37
2019-02-09T04:22:14.616Z,9.93
2019-02-09T04:24:42.791Z,7.40
2019-02-09T04:27:11.005Z,7.62
2019-02-09T04:29:39.138Z,10.23
2019-02-09T04:32:08.336Z,8.15
2019-02-09T04:34:36.517Z,9.25
2019-02-09T04:37:04.742Z,5.53
2019-02-09T04:39:32.847Z,8.48
2019-02-09T04:42:01.031Z,8.65
2019-02-09T04:44:29.494Z,12.65
2019-02-09T04:46:57.665Z,6.58
2019-02-09T04:49:26.223Z,6.50
2019-02-09T04:51:54.433Z,9.70
2019-02-09T04:54:22.618Z,6.37
2019-02-09T04:56:51.077Z,7.08
2019-02-09T04:59:19.250Z,9.25
2019-02-09T05:01:47.799Z,8.43
2019-02-09T05:04:16.494Z,7.50
2019-02-09T05:06:45.114Z,9.18
2019-02-09T05:09:13.584Z,8.78
2019-02-09T05:11:42.049Z,8.20
2019-02-09T05:14:10.252Z,7.27
2019-02-09T05:16:39.131Z,7.30
2019-02-09T05:19:07.605Z,6.72
2019-02-09T05:21:35.852Z,6.67
2019-02-09T05:24:04.522Z,10.40
2019-02-09T05:26:32.670Z,6.83
2019-02-09T05:29:01.118Z,6.83
2019-02-09T05:31:33.671Z,8.08
2019-02-09T05:34:01.883Z,6.30
2019-02-09T05:36:30.060Z,7.80
2019-02-09T05:39:02.525Z,10.70
2019-02-09T05:41:30.759Z,24.70
2019-02-09T05:43:58.979Z,14.47
2019-02-09T05:46:27.425Z,11.85
2019-02-09T05:48:55.637Z,6.45
2019-02-09T05:51:23.794Z,10.18
2019-02-09T05:53:52.366Z,6.17
2019-02-09T05:56:20.567Z,7.85
2019-02-09T05:58:48.722Z,5.28
2019-02-09T06:01:16.952Z,13.08
2019-02-09T06:03:45.581Z,8.23
2019-02-09T06:06:19.875Z,7.33
2019-02-09T06:08:48.386Z,8.60
2019-02-09T06:11:16.829Z,10.30
2019-02-09T06:13:46.916Z,8.73
2019-02-09T06:16:15.571Z,9.90
2019-02-09T06:19:03.368Z,6.40
2019-02-09T06:21:31.585Z,6.28
2019-02-09T06:23:59.832Z,7.72
2019-02-09T06:26:29.305Z,6.17
2019-02-09T06:28:57.541Z,7.00
2019-02-09T06:31:26.057Z,8.00
2019-02-09T06:33:54.809Z,8.25
2019-02-09T06:36:23.043Z,5.37
2019-02-09T06:38:51.267Z,6.97
2019-02-09T06:41:19.437Z,10.75
2019-02-09T06:43:48.151Z,6.05
2019-02-09T06:46:16.287Z,7.37
2019-02-09T06:48:45.524Z,4.72
2019-02-09T06:51:14.683Z,6.22
2019-02-09T06:53:42.887Z,6.90
2019-02-09T06:56:11.134Z,4.55
2019-02-09T06:58:39.700Z,5.00
2019-02-09T07:01:08.288Z,5.45
2019-02-09T07:03:36.865Z,5.83
2019-02-09T07:06:05.193Z,4.87
2019-02-09T07:08:33.448Z,4.50
2019-02-09T07:11:02.420Z,6.60
2019-02-09T07:13:31.062Z,3.00
2019-02-09T07:15:59.257Z,3.55
2019-02-09T07:18:27.598Z,3.17
2019-02-09T07:20:57.190Z,2.60
2019-02-09T07:23:25.419Z,2.17
2019-02-09T07:25:53.758Z,3.42
2019-02-09T07:28:22.195Z,2.08
2019-02-09T07:30:50.669Z,2.50
2019-02-09T07:33:19.901Z,3.37
2019-02-09T07:35:49.687Z,3.30
2019-02-09T07:38:18.829Z,2.58
2019-02-09T07:41:06.362Z,2.72
2019-02-09T07:43:34.580Z,3.30
2019-02-09T07:46:02.771Z,4.22
2019-02-09T07:48:31.765Z,2.42
2019-02-09T07:51:00.116Z,2.65
2019-02-09T07:53:28.581Z,2.98
2019-02-09T07:55:56.922Z,4.03
2019-02-09T07:58:25.394Z,2.37
2019-02-09T08:00:58.043Z,4.62
2019-02-09T08:03:26.549Z,5.20
2019-02-09T08:05:54.669Z,2.53
2019-02-09T08:08:23.287Z,4.47
2019-02-09T08:10:51.462Z,6.15
2019-02-09T08:13:19.733Z,2.05
2019-02-09T08:15:48.122Z,3.67
2019-02-09T08:18:17.091Z,3.42
2019-02-09T08:20:45.767Z,3.10
2019-02-09T08:23:13.959Z,3.42
2019-02-09T08:25:42.570Z,3.65
2019-02-09T08:28:10.825Z,2.60
2019-02-09T08:30:43.380Z,3.27
2019-02-09T08:33:11.575Z,1.80
2019-02-09T08:35:40.388Z,2.08
2019-02-09T08:38:09.436Z,3.40
2019-02-09T08:40:38.300Z,2.92
2019-02-09T08:43:06.521Z,1.57
2019-02-09T08:45:35.740Z,3.40
2019-02-09T08:48:03.879Z,3.80
2019-02-09T08:50:34.779Z,3.37
2019-02-09T08:53:03.676Z,2.02
2019-02-09T08:55:32.817Z,2.22
2019-02-09T08:58:01.996Z,3.72
2019-02-09T09:00:30.980Z,2.30
2019-02-09T09:02:59.484Z,4.12
2019-02-09T09:05:27.703Z,1.77
2019-02-09T09:07:55.943Z,4.78
2019-02-09T09:10:25.970Z,3.20
2019-02-09T09:12:54.410Z,5.47
2019-02-09T09:15:51.892Z,2.95
2019-02-09T09:18:20.263Z,2.00
2019-02-09T09:20:54.273Z,2.92
2019-02-09T09:23:22.434Z,2.35
2019-02-09T09:25:50.593Z,3.83
2019-02-09T09:28:18.844Z,2.27
2019-02-09T09:30:47.487Z,2.27
2019-02-09T09:33:15.906Z,7.72
2019-02-09T09:35:44.155Z,4.15
2019-02-09T09:38:12.287Z,5.17
2019-02-09T09:40:41.178Z,0.98
2019-02-09T09:43:09.626Z,3.30
2019-02-09T09:45:38.309Z,2.15
2019-02-09T09:48:08.365Z,4.65
2019-02-09T09:50:36.532Z,2.75
2019-02-09T09:53:04.785Z,2.52
2019-02-09T09:55:32.987Z,3.42
2019-02-09T09:58:01.156Z,2.62
2019-02-09T10:00:29.330Z,4.78
2019-02-09T10:02:57.528Z,3.77
2019-02-09T10:05:25.686Z,4.20
2019-02-09T10:07:53.865Z,2.92
2019-02-09T10:10:22.039Z,3.15
2019-02-09T10:12:50.507Z,1.37
2019-02-09T10:15:21.816Z,3.65
2019-02-09T10:17:50.930Z,5.53
2019-02-09T10:20:20.770Z,3.92
2019-02-09T10:22:48.957Z,3.22
2019-02-09T10:25:17.149Z,3.17
2019-02-09T10:27:45.586Z,2.90
2019-02-09T10:30:18.340Z,6.35
2019-02-09T10:32:46.838Z,5.65
2019-02-09T10:35:15.069Z,3.57
2019-02-09T10:37:43.274Z,5.60
2019-02-09T10:40:15.360Z,6.40
2019-02-09T10:42:43.835Z,5.37
2019-02-09T10:45:17.635Z,5.12
2019-02-09T10:47:45.872Z,5.80
2019-02-09T10:50:17.616Z,5.50
2019-02-09T10:52:45.753Z,6.70
2019-02-09T10:55:15.246Z,4.20
2019-02-09T10:57:44.074Z,4.97
2019-02-09T11:00:14.987Z,3.58
2019-02-09T11:05:11.339Z,5.17
2019-02-09T11:07:39.507Z,4.22
2019-02-09T11:10:09.776Z,4.53
2019-02-09T11:12:37.908Z,3.27
2019-02-09T11:15:07.719Z,8.45
2019-02-09T11:17:36.907Z,2.70
2019-02-09T11:20:05.901Z,4.45
2019-02-09T11:22:34.447Z,6.87
2019-02-09T11:25:02.669Z,5.50
2019-02-09T11:27:31.898Z,3.50
2019-02-09T11:30:00.028Z,4.60
2019-02-09T11:32:28.204Z,6.70
2019-02-09T11:34:56.646Z,7.92
2019-02-09T11:37:25.088Z,2.77
2019-02-09T11:39:53.568Z,3.40
2019-02-09T11:42:21.717Z,4.85
2019-02-09T11:44:49.838Z,4.03
2019-02-09T11:47:18.061Z,6.13
2019-02-09T11:49:46.237Z,6.20
2019-02-09T11:52:14.799Z,3.92
2019-02-09T11:54:43.387Z,3.47
2019-02-09T11:57:11.578Z,6.05
2019-02-09T11:59:40.451Z,9.25
2019-02-09T12:02:08.641Z,5.47
2019-02-09T12:04:36.824Z,4.80
2019-02-09T12:07:05.275Z,5.72
2019-02-09T12:09:33.851Z,4.85
2019-02-09T12:12:02.423Z,3.12
2019-02-09T12:14:30.633Z,5.00
2019-02-09T12:16:58.808Z,3.73
2019-02-09T12:19:31.457Z,4.85
2019-02-09T12:22:00.582Z,6.42
2019-02-09T12:24:28.768Z,3.05
2019-02-09T12:26:57.943Z,3.17
2019-02-09T12:29:26.503Z,5.10
2019-02-09T12:31:55.107Z,2.20
2019-02-09T12:34:23.282Z,5.65
2019-02-09T12:36:51.467Z,3.02
2019-02-09T12:39:19.629Z,4.25
2019-02-09T12:41:47.835Z,3.42
2019-02-09T12:44:16.350Z,6.33
2019-02-09T12:46:44.495Z,2.45
2019-02-09T12:49:12.628Z,2.72
2019-02-09T12:51:40.817Z,4.03
2019-02-09T12:54:10.019Z,4.45
2019-02-09T12:56:38.204Z,6.67
2019-02-09T12:59:06.353Z,4.35
2019-02-09T13:01:34.537Z,3.27
2019-02-09T13:04:02.683Z,4.93
2019-02-09T13:06:30.875Z,3.87
2019-02-09T13:08:59.045Z,2.62
2019-02-09T13:11:27.548Z,4.87
2019-02-09T13:13:56.016Z,5.78
2019-02-09T13:16:26.223Z,4.53
2019-02-09T13:19:00.438Z,5.47
2019-02-09T13:21:30.045Z,9.18
2019-02-09T13:23:59.142Z,4.75
2019-02-09T13:26:27.826Z,4.40
2019-02-09T13:28:56.338Z,5.05
2019-02-09T13:31:25.071Z,4.22
2019-02-09T13:33:53.645Z,3.85
2019-02-09T13:36:21.851Z,4.67
2019-02-09T13:38:50.028Z,5.55
2019-02-09T13:41:18.598Z,8.35
2019-02-09T13:43:46.800Z,5.73
2019-02-09T13:46:15.249Z,3.90
2019-02-09T13:48:43.357Z,4.95
2019-02-09T13:51:11.516Z,4.33
2019-02-09T13:53:39.689Z,3.55
2019-02-09T13:56:08.904Z,6.22
2019-02-09T13:58:37.370Z,8.07
2019-02-09T14:01:05.811Z,4.33
2019-02-09T14:03:34.396Z,9.45
2019-02-09T14:06:08.359Z,4.78
2019-02-09T14:08:31.805Z,6.45
2019-02-09T14:11:00.474Z,7.53
2019-02-09T14:13:29.253Z,2.52
2019-02-09T14:15:58.459Z,6.67
2019-02-09T14:18:26.643Z,10.23
2019-02-09T14:20:54.824Z,5.72
2019-02-09T14:23:23.274Z,4.80
2019-02-09T14:25:51.803Z,6.85
2019-02-09T14:28:19.993Z,7.75
2019-02-09T14:30:48.219Z,7.75
2019-02-09T14:33:16.395Z,4.65
2019-02-09T14:35:44.563Z,5.67
2019-02-09T14:38:13.071Z,7.28
2019-02-09T14:40:41.218Z,5.72
2019-02-09T14:43:10.010Z,5.35
2019-02-09T14:45:40.144Z,6.33
2019-02-09T14:48:08.303Z,5.12
2019-02-09T14:50:36.447Z,5.33
2019-02-09T14:53:05.131Z,6.10
2019-02-09T14:55:35.170Z,6.72
2019-02-09T14:58:04.436Z,6.12
2019-02-09T15:00:37.975Z,5.97
2019-02-09T15:03:07.057Z,6.10
2019-02-09T15:05:35.262Z,7.25
2019-02-09T15:08:03.412Z,6.67
2019-02-09T15:10:32.508Z,5.70
2019-02-09T15:13:00.668Z,6.40
2019-02-09T15:15:31.706Z,4.00
2019-02-09T15:17:59.961Z,3.70
2019-02-09T15:20:31.141Z,4.90
2019-02-09T15:22:59.289Z,5.20
2019-02-09T15:25:29.440Z,9.23
2019-02-09T15:27:57.877Z,9.00
2019-02-09T15:30:27.437Z,5.92
2019-02-09T15:32:56.620Z,7.28
2019-02-09T15:35:25.812Z,10.68
2019-02-09T15:37:53.998Z,3.77
2019-02-09T15:40:23.257Z,5.45
2019-02-09T15:42:51.462Z,4.58
2019-02-09T15:45:19.937Z,7.53
2019-02-09T15:47:48.179Z,9.25
2019-02-09T15:50:16.414Z,3.97
2019-02-09T15:52:44.628Z,7.80
2019-02-09T15:55:14.387Z,8.15
2019-02-09T15:57:42.573Z,10.75
2019-02-09T16:00:21.867Z,4.03
2019-02-09T16:02:53.112Z,5.35
2019-02-09T16:07:48.775Z,6.95
2019-02-09T16:10:37.347Z,7.92
2019-02-09T16:13:05.140Z,7.87
2019-02-09T16:15:34.783Z,7.15
2019-02-09T16:18:04.150Z,10.13
2019-02-09T16:20:32.360Z,9.65
2019-02-09T16:23:01.551Z,7.47
2019-02-09T16:25:29.728Z,10.50
2019-02-09T16:28:10.014Z,9.25
2019-02-09T16:30:38.246Z,9.73
2019-02-09T16:33:06.828Z,9.83
2019-02-09T16:35:35.015Z,8.73
2019-02-09T16:38:04.109Z,8.88
2019-02-09T16:40:32.293Z,14.53
2019-02-09T16:43:00.526Z,14.75
2019-02-09T16:45:30.461Z,6.83
2019-02-09T16:47:58.653Z,12.73
2019-02-09T16:50:26.831Z,9.05
2019-02-09T16:52:54.996Z,11.93
2019-02-09T16:55:23.210Z,15.23
2019-02-09T16:57:51.375Z,15.40
2019-02-09T17:00:25.031Z,17.87
2019-02-09T17:02:53.626Z,13.28
2019-02-09T17:05:22.197Z,17.73
2019-02-09T17:07:50.450Z,10.55
2019-02-09T17:10:18.712Z,12.98
2019-02-09T17:12:47.435Z,11.03
2019-02-09T17:15:18.388Z,13.90
2019-02-09T17:17:46.623Z,10.10
2019-02-09T17:20:14.900Z,11.43
2019-02-09T17:22:43.041Z,10.50
2019-02-09T17:25:11.655Z,12.53
2019-02-09T17:27:40.143Z,12.90
2019-02-09T17:30:15.225Z,10.32
2019-02-09T17:32:43.395Z,7.85
2019-02-09T17:35:11.621Z,11.08
2019-02-09T17:37:40.143Z,6.33
2019-02-09T17:40:10.653Z,18.40
2019-02-09T17:42:38.856Z,13.87
2019-02-09T17:45:11.548Z,14.47
2019-02-09T17:47:39.716Z,14.47
2019-02-09T17:50:09.518Z,13.48
2019-02-09T17:52:37.985Z,13.55
2019-02-09T17:55:07.257Z,11.83
2019-02-09T17:57:36.141Z,16.50
2019-02-09T18:00:06.920Z,14.45
2019-02-09T18:02:36.439Z,16.60
2019-02-09T18:05:04.993Z,14.60
2019-02-09T18:07:34.197Z,10.10
2019-02-09T18:10:03.418Z,11.28
2019-02-09T18:12:31.578Z,14.85
2019-02-09T18:15:00.287Z,18.12
2019-02-09T18:17:28.737Z,15.70
2019-02-09T18:19:57.319Z,15.38
2019-02-09T18:22:25.492Z,24.20
2019-02-09T18:24:54.082Z,17.07
2019-02-09T18:27:22.947Z,13.95
2019-02-09T18:29:51.163Z,16.30
2019-02-09T18:32:19.312Z,14.55
2019-02-09T18:34:56.073Z,15.90
2019-02-09T18:37:21.557Z,18.15
2019-02-09T18:39:49.843Z,17.48
2019-02-09T18:42:22.462Z,18.85
2019-02-09T18:44:50.914Z,26.10
2019-02-09T18:47:19.108Z,20.77
2019-02-09T18:49:47.372Z,18.60
2019-02-09T18:52:15.840Z,21.37
2019-02-09T18:54:44.330Z,21.85
2019-02-09T18:57:12.756Z,27.80
2019-02-09T18:59:42.163Z,18.05
2019-02-09T19:02:11.534Z,19.00
2019-02-09T19:04:40.019Z,18.17
2019-02-09T19:07:08.212Z,12.70
2019-02-09T19:09:36.742Z,12.75
2019-02-09T19:12:05.968Z,14.50
2019-02-09T19:14:34.127Z,9.33
2019-02-09T19:17:02.918Z,10.25
2019-02-09T19:19:37.150Z,11.22
2019-02-09T19:22:05.332Z,7.37
2019-02-09T19:24:33.522Z,8.53
2019-02-09T19:27:01.957Z,11.97
2019-02-09T19:29:30.175Z,14.03
2019-02-09T19:31:58.676Z,16.23
2019-02-09T19:34:27.184Z,19.23
2019-02-09T19:36:55.771Z,15.85
2019-02-09T19:39:24.312Z,12.37
2019-02-09T19:41:52.447Z,14.38
2019-02-09T19:44:20.644Z,17.90
2019-02-09T19:46:48.786Z,14.03
2019-02-09T19:49:17.756Z,19.37
2019-02-09T19:51:46.200Z,15.20
2019-02-09T19:54:14.618Z,13.53
2019-02-09T19:56:44.070Z,11.43
2019-02-09T19:59:13.316Z,14.90
2019-02-09T20:01:42.158Z,12.13
2019-02-09T20:04:10.619Z,12.03
2019-02-09T20:06:40.082Z,11.10
2019-02-09T20:09:08.330Z,17.92
2019-02-09T20:11:36.651Z,19.87
2019-02-09T20:14:06.247Z,11.70
2019-02-09T20:16:34.502Z,10.50
2019-02-09T20:19:03.729Z,10.25
2019-02-09T20:21:32.023Z,8.48
2019-02-09T20:24:00.239Z,14.75
2019-02-09T20:26:28.479Z,9.93
2019-02-09T20:28:58.069Z,13.15
2019-02-09T20:31:26.277Z,12.95
2019-02-09T20:33:54.427Z,12.05
2019-02-09T20:36:22.917Z,13.83
2019-02-09T20:38:52.181Z,13.60
2019-02-09T20:41:20.697Z,14.60
2019-02-09T20:43:49.206Z,9.78
2019-02-09T20:46:17.661Z,11.12
2019-02-09T20:48:45.900Z,12.13
2019-02-09T20:51:14.138Z,11.38
2019-02-09T20:53:42.913Z,13.28
2019-02-09T20:56:11.317Z,12.70
2019-02-09T20:58:39.596Z,16.87
2019-02-09T21:01:07.808Z,20.50
2019-02-09T21:03:35.991Z,21.30
2019-02-09T21:06:04.218Z,11.38
2019-02-09T21:08:32.467Z,11.15
2019-02-09T21:11:01.676Z,12.00
2019-02-09T21:13:31.852Z,11.28
2019-02-09T21:16:19.459Z,12.45
2019-02-09T21:18:48.449Z,8.95
2019-02-09T21:21:16.713Z,8.40
2019-02-09T21:23:44.986Z,10.05
2019-02-09T21:26:13.142Z,11.70
2019-02-09T21:28:41.289Z,12.93
2019-02-09T21:31:09.523Z,12.82
2019-02-09T21:33:37.722Z,13.20
2019-02-09T21:36:06.175Z,11.35
2019-02-09T21:38:34.378Z,12.20
2019-02-09T21:41:02.528Z,16.65
2019-02-09T21:43:31.105Z,11.57
2019-02-09T21:45:59.304Z,16.05
2019-02-09T21:48:27.521Z,14.58
2019-02-09T21:50:56.039Z,13.45
2019-02-09T21:53:24.236Z,13.95
2019-02-09T21:55:52.707Z,13.15
2019-02-09T21:58:20.879Z,16.15
2019-02-09T22:00:49.073Z,14.30
2019-02-09T22:03:17.524Z,13.24
2019-02-09T22:05:51.815Z,11.63
2019-02-09T22:08:19.606Z,8.80
2019-02-09T22:10:44.341Z,11.57
2019-02-09T22:13:13.054Z,16.05
2019-02-09T22:15:41.678Z,16.23
2019-02-09T22:18:09.855Z,13.20
2019-02-09T22:20:38.041Z,11.93
2019-02-09T22:23:06.309Z,15.50
2019-02-09T22:25:35.494Z,9.90
2019-02-09T22:28:03.738Z,9.20
2019-02-09T22:30:31.981Z,14.38
2019-02-09T22:33:01.198Z,11.40
2019-02-09T22:35:29.349Z,11.20
2019-02-09T22:37:57.521Z,13.65
2019-02-09T22:40:27.719Z,14.93
2019-02-09T22:42:55.901Z,9.68
2019-02-09T22:45:24.072Z,12.60
2019-02-09T22:47:52.255Z,10.32
2019-02-09T22:50:22.651Z,9.28
2019-02-09T22:52:51.227Z,12.20
2019-02-09T22:55:19.477Z,11.93
2019-02-09T22:57:48.198Z,9.95
2019-02-09T23:00:20.452Z,13.60
2019-02-09T23:02:48.659Z,13.48
2019-02-09T23:05:38.489Z,12.35
2019-02-09T23:08:07.631Z,15.13
2019-02-09T23:10:35.801Z,14.93
2019-02-09T23:13:03.962Z,23.22
2019-02-09T23:15:32.519Z,15.40
2019-02-09T23:18:00.786Z,13.10
2019-02-09T23:20:29.022Z,13.13
2019-02-09T23:22:57.202Z,14.10
2019-02-09T23:25:25.383Z,11.48
2019-02-09T23:27:53.876Z,12.28
2019-02-09T23:30:23.300Z,10.68
2019-02-09T23:32:51.716Z,16.05
2019-02-09T23:35:19.887Z,9.97
2019-02-09T23:37:48.064Z,16.30
2019-02-09T23:40:16.264Z,10.40
2019-02-09T23:42:46.656Z,11.93
2019-02-09T23:45:14.846Z,13.08
2019-02-09T23:47:44.344Z,15.98
2019-02-09T23:50:12.912Z,11.03
2019-02-09T23:52:41.100Z,13.00
2019-02-09T23:55:09.634Z,13.62
2019-02-09T23:57:37.898Z,18.95
